createdAt,value
2022-08-01T00:00:18.435Z,98539.28
2022-08-01T00:05:26.050Z,98536.94
2022-08-01T00:10:30.938Z,98528.44
2022-08-01T00:15:36.130Z,98519.25
2022-08-01T00:20:43.626Z,98511.09
2022-08-01T00:25:48.448Z,98511.38
2022-08-01T00:30:53.479Z,98511.25
2022-08-01T00:36:01.011Z,98508.91
2022-08-01T00:41:06.028Z,98505.47
2022-08-01T00:46:11.069Z,98507.81
2022-08-01T00:51:18.986Z,98509.75
2022-08-01T00:56:24.899Z,98507.28
2022-08-01T01:01:39.502Z,98512.22
2022-08-01T01:06:52.840Z,98504.53
2022-08-01T01:12:12.036Z,98505.88
2022-08-01T01:17:49.599Z,98504.97
2022-08-01T01:23:01.609Z,98502.22
2022-08-01T01:28:16.763Z,98514.81
2022-08-01T01:33:29.556Z,98510.78
2022-08-01T01:38:42.991Z,98509.25
2022-08-01T01:43:50.597Z,98489.28
2022-08-01T01:48:59.744Z,98489.69
2022-08-01T01:54:06.201Z,98496.09
2022-08-01T01:59:11.129Z,98504.81
2022-08-01T02:04:20.197Z,98499.53
2022-08-01T02:09:27.155Z,98496.28
2022-08-01T02:14:33.268Z,98502.09
2022-08-01T02:19:41.484Z,98494.69
2022-08-01T02:24:50.907Z,98496.59
2022-08-01T02:30:01.111Z,98491.66
2022-08-01T02:35:11.835Z,98505.78
2022-08-01T02:40:18.336Z,98495.81
2022-08-01T02:45:26.580Z,98516.09
2022-08-01T02:50:37.963Z,98513.72
2022-08-01T02:55:46.093Z,98502.88
2022-08-01T03:00:51.157Z,98493.94
2022-08-01T03:06:02.032Z,98498.03
2022-08-01T03:11:09.403Z,98494.63
2022-08-01T03:16:16.711Z,98511.31
2022-08-01T03:21:27.086Z,98508.28
2022-08-01T03:26:34.882Z,98514.56
2022-08-01T03:31:43.823Z,98521.06
2022-08-01T03:36:57.032Z,98511.50
2022-08-01T03:42:19.833Z,98510.38
2022-08-01T03:47:29.102Z,98512.34
2022-08-01T03:52:38.793Z,98520.44
2022-08-01T03:57:44.154Z,98515.34
2022-08-01T04:02:51.131Z,98524.84
2022-08-01T04:08:00.708Z,98515.72
2022-08-01T04:13:05.582Z,98520.44
2022-08-01T04:18:11.065Z,98519.69
2022-08-01T04:23:20.211Z,98525.88
2022-08-01T04:28:27.262Z,98523.72
2022-08-01T04:33:37.759Z,98530.38
2022-08-01T04:38:50.150Z,98529.31
2022-08-01T04:43:56.783Z,98536.31
2022-08-01T04:49:04.966Z,98537.94
2022-08-01T04:54:12.591Z,98534.63
2022-08-01T04:59:29.790Z,98545.88
2022-08-01T05:04:35.164Z,98546.31
2022-08-01T05:09:47.029Z,98550.69
2022-08-01T05:14:52.080Z,98546.38
2022-08-01T05:19:57.177Z,98548.06
2022-08-01T05:25:06.013Z,98548.34
2022-08-01T05:30:12.971Z,98552.53
2022-08-01T05:35:17.892Z,98556.25
2022-08-01T05:40:25.850Z,98561.84
2022-08-01T05:45:31.100Z,98564.16
2022-08-01T05:50:37.131Z,98552.66
2022-08-01T05:55:44.555Z,98553.91
2022-08-01T06:00:50.141Z,98558.03
2022-08-01T06:05:55.402Z,98566.09
2022-08-01T06:11:03.233Z,98567.34
2022-08-01T06:16:09.095Z,98577.41
2022-08-01T06:21:16.564Z,98579.72
2022-08-01T06:26:24.295Z,98581.06
2022-08-01T06:31:33.425Z,98596.28
2022-08-01T06:36:38.597Z,98588.97
2022-08-01T06:41:47.517Z,98594.97
2022-08-01T06:46:53.112Z,98602.78
2022-08-01T06:51:59.331Z,98603.63
2022-08-01T06:57:08.793Z,98612.94
2022-08-01T07:02:13.721Z,98617.41
2022-08-01T07:07:21.377Z,98612.34
2022-08-01T07:12:29.154Z,98615.53
2022-08-01T07:17:34.035Z,98624.06
2022-08-01T07:22:39.254Z,98620.81
2022-08-01T07:27:47.436Z,98627.94
2022-08-01T07:32:52.410Z,98634.16
2022-08-01T07:37:59.177Z,98627.75
2022-08-01T07:43:06.922Z,98623.00
2022-08-01T07:48:12.003Z,98631.09
2022-08-01T07:53:16.880Z,98626.72
2022-08-01T07:58:24.486Z,98625.88
2022-08-01T08:03:30.359Z,98623.31
2022-08-01T08:08:35.752Z,98620.94
2022-08-01T08:13:43.587Z,98624.50
2022-08-01T08:18:48.557Z,98624.63
2022-08-01T08:24:05.877Z,98616.06
2022-08-01T08:29:13.583Z,98631.56
2022-08-01T08:34:18.869Z,98632.94
2022-08-01T08:39:23.825Z,98629.59
2022-08-01T08:44:31.814Z,98629.75
2022-08-01T08:49:36.947Z,98628.84
2022-08-01T08:54:44.804Z,98631.03
2022-08-01T08:59:58.143Z,98642.56
2022-08-01T09:05:03.384Z,98632.59
2022-08-01T09:10:10.396Z,98646.88
2022-08-01T09:15:18.547Z,98636.81
2022-08-01T09:20:27.663Z,98636.03
2022-08-01T09:25:59.397Z,98645.31
2022-08-01T09:31:13.703Z,98645.63
2022-08-01T09:36:21.288Z,98657.25
2022-08-01T09:41:37.454Z,98643.78
2022-08-01T09:46:57.535Z,98631.91
2022-08-01T09:52:13.292Z,98634.41
2022-08-01T09:57:21.193Z,98643.03
2022-08-01T10:02:37.720Z,98636.78
2022-08-01T10:08:00.767Z,98637.13
2022-08-01T10:13:06.293Z,98634.41
2022-08-01T10:18:26.220Z,98636.28
2022-08-01T10:23:39.853Z,98628.44
2022-08-01T10:28:48.989Z,98637.06
2022-08-01T10:33:57.258Z,98635.75
2022-08-01T10:39:03.065Z,98630.84
2022-08-01T10:44:10.900Z,98638.81
2022-08-01T10:49:23.597Z,98646.94
2022-08-01T10:54:32.045Z,98637.47
2022-08-01T10:59:50.734Z,98636.56
2022-08-01T11:05:14.813Z,98642.31
2022-08-01T11:10:28.407Z,98641.53
2022-08-01T11:15:33.514Z,98635.97
2022-08-01T11:20:42.055Z,98639.25
2022-08-01T11:26:17.573Z,98636.72
2022-08-01T11:31:31.138Z,98656.38
2022-08-01T11:37:01.685Z,98654.00
2022-08-01T11:42:23.682Z,98641.28
2022-08-01T11:47:58.688Z,98652.06
2022-08-01T11:53:08.520Z,98650.94
2022-08-01T11:58:22.217Z,98650.75
2022-08-01T12:03:36.588Z,98658.25
2022-08-01T12:08:44.287Z,98653.56
2022-08-01T12:13:50.608Z,98660.94
2022-08-01T12:18:55.588Z,98666.16
2022-08-01T12:24:07.676Z,98657.13
2022-08-01T12:29:12.878Z,98656.66
2022-08-01T12:34:29.768Z,98667.50
2022-08-01T12:39:40.320Z,98657.28
2022-08-01T12:50:18.112Z,98660.16
2022-08-01T12:55:33.992Z,98645.78
2022-08-01T13:00:41.532Z,98642.22
2022-08-01T13:05:49.520Z,98651.00
2022-08-01T13:11:06.386Z,98661.84
2022-08-01T13:16:15.617Z,98659.13
2022-08-01T13:21:54.214Z,98647.34
2022-08-01T13:27:07.370Z,98641.00
2022-08-01T13:32:27.970Z,98650.47
2022-08-01T13:37:39.049Z,98669.00
2022-08-01T13:42:49.776Z,98674.91
2022-08-01T13:48:03.578Z,98668.53
2022-08-01T13:53:18.694Z,98665.63
2022-08-01T13:58:29.488Z,98681.63
2022-08-01T14:03:34.767Z,98679.56
2022-08-01T14:08:39.791Z,98676.81
2022-08-01T14:13:53.759Z,98676.34
2022-08-01T14:19:04.047Z,98686.56
2022-08-01T14:24:11.013Z,98684.22
2022-08-01T14:30:04.362Z,98688.47
2022-08-01T14:34:56.336Z,98683.31
2022-08-01T14:40:05.397Z,98702.63
2022-08-01T14:45:16.670Z,98691.31
2022-08-01T14:50:21.752Z,98699.22
2022-08-01T14:55:29.167Z,98699.44
2022-08-01T15:00:38.444Z,98704.53
2022-08-01T15:05:43.814Z,98706.00
2022-08-01T15:10:48.810Z,98706.31
2022-08-01T15:15:59.853Z,98696.25
2022-08-01T15:21:05.261Z,98697.97
2022-08-01T15:26:14.768Z,98693.88
2022-08-01T15:31:22.405Z,98712.28
2022-08-01T15:36:27.583Z,98709.91
2022-08-01T15:41:35.593Z,98711.16
2022-08-01T15:46:43.153Z,98703.16
2022-08-01T15:51:48.224Z,98710.06
2022-08-01T15:56:57.544Z,98712.38
2022-08-01T16:02:05.674Z,98709.47
2022-08-01T16:07:11.235Z,98716.00
2022-08-01T16:12:16.564Z,98726.44
2022-08-01T16:17:24.165Z,98719.75
2022-08-01T16:22:29.504Z,98720.00
2022-08-01T16:27:38.695Z,98719.34
2022-08-01T16:32:53.068Z,98718.88
2022-08-01T16:38:10.720Z,98716.94
2022-08-01T16:43:16.102Z,98735.03
2022-08-01T16:48:27.640Z,98724.78
2022-08-01T16:53:32.648Z,98713.16
2022-08-01T16:58:37.648Z,98708.41
2022-08-01T17:03:52.554Z,98705.28
2022-08-01T17:08:58.890Z,98718.75
2022-08-01T17:14:03.775Z,98711.97
2022-08-01T17:19:11.408Z,98715.09
2022-08-01T17:24:16.909Z,98731.16
2022-08-01T17:29:21.817Z,98735.69
2022-08-01T17:34:29.543Z,98744.75
2022-08-01T17:39:39.284Z,98747.13
2022-08-01T17:44:48.959Z,98751.41
2022-08-01T17:49:57.107Z,98751.41
2022-08-01T17:55:02.459Z,98755.66
2022-08-01T18:00:08.835Z,98767.81
2022-08-01T18:05:16.866Z,98759.31
2022-08-01T18:10:22.385Z,98764.84
2022-08-01T18:15:29.233Z,98754.00
2022-08-01T18:20:42.846Z,98760.19
2022-08-01T18:25:48.359Z,98768.72
2022-08-01T18:30:53.323Z,98765.63
2022-08-01T18:36:03.821Z,98776.13
2022-08-01T18:41:10.540Z,98777.31
2022-08-01T18:46:15.474Z,98786.66
2022-08-01T18:51:24.797Z,98794.81
2022-08-01T18:56:29.733Z,98804.91
2022-08-01T19:01:34.821Z,98804.50
2022-08-01T19:06:43.268Z,98805.59
2022-08-01T19:11:52.591Z,98811.44
2022-08-01T19:16:57.568Z,98816.50
2022-08-01T19:22:05.328Z,98827.69
2022-08-01T19:27:14.320Z,98840.78
2022-08-01T19:32:26.537Z,98847.34
2022-08-01T19:37:47.306Z,98851.16
2022-08-01T19:42:52.713Z,98857.34
2022-08-01T19:47:58.301Z,98872.78
2022-08-01T19:53:06.933Z,98875.69
2022-08-01T19:58:28.794Z,98886.84
2022-08-01T20:03:39.131Z,98889.75
2022-08-01T20:08:47.104Z,98889.34
2022-08-01T20:13:53.841Z,98891.03
2022-08-01T20:18:59.147Z,98889.03
2022-08-01T20:24:11.835Z,98899.72
2022-08-01T20:29:17.708Z,98895.63
2022-08-01T20:34:25.956Z,98901.88
2022-08-01T20:39:36.373Z,98907.84
2022-08-01T20:44:46.571Z,98911.41
2022-08-01T20:49:53.972Z,98914.34
2022-08-01T20:55:01.429Z,98916.69
2022-08-01T21:00:08.777Z,98919.81
2022-08-01T21:05:14.947Z,98925.28
2022-08-01T21:10:26.351Z,98923.97
2022-08-01T21:15:35.034Z,98923.66
2022-08-01T21:20:45.627Z,98921.97
2022-08-01T21:25:55.259Z,98926.75
2022-08-01T21:31:01.618Z,98934.06
2022-08-01T21:36:07.787Z,98934.97
2022-08-01T21:41:16.681Z,98942.00
2022-08-01T21:46:25.568Z,98931.41
2022-08-01T21:51:40.562Z,98946.06
2022-08-01T21:56:55.742Z,98950.47
2022-08-01T22:02:05.618Z,98943.22
2022-08-01T22:07:12.600Z,98949.81
2022-08-01T22:12:21.615Z,98953.22
2022-08-01T22:17:27.408Z,98955.50
2022-08-01T22:22:51.473Z,98966.44
2022-08-01T22:28:08.096Z,98973.97
2022-08-01T22:33:15.974Z,98972.69
2022-08-01T22:38:23.273Z,98966.44
2022-08-01T22:43:40.849Z,98973.63
2022-08-01T22:48:48.975Z,98972.25
2022-08-01T22:53:59.252Z,98967.28
2022-08-01T22:59:12.088Z,98979.97
2022-08-01T23:04:30.768Z,98981.34
2022-08-01T23:09:54.278Z,98979.38
2022-08-01T23:15:04.074Z,98984.53
2022-08-01T23:20:10.337Z,98977.06
2022-08-01T23:25:18.503Z,98977.72
2022-08-01T23:30:27.940Z,98981.59
2022-08-01T23:35:36.914Z,98987.53
2022-08-01T23:40:47.119Z,98992.75
2022-08-01T23:46:04.191Z,98986.66
2022-08-01T23:51:17.277Z,98977.28
2022-08-01T23:56:29.109Z,98978.38
